DGANA EDDS-EDDS

Flight info

Callsign DGANA
Flight time N/A
Altitude
Route
Aircraft P68

Departure

Time 2026-05-05 19:07
Airport Stuttgart Airport (EDDS)

Arrival

Time N/A
Airport Stuttgart Airport (EDDS)
Time Latitude Longitude Altitude Speed Heading
2026-05-05 18:46 48.69174 9.21367 1280 ft 0 kts 216°
2026-05-05 18:55 48.69169 9.21362 1280 ft 2 kts 216°
2026-05-05 18:56 48.69157 9.21349 1280 ft 2 kts 215°
2026-05-05 18:56 48.69138 9.21309 1280 ft 5 kts 205°
2026-05-05 18:56 48.69101 9.21325 1280 ft 7 kts 149°
2026-05-05 18:56 48.69099 9.21408 1280 ft 12 kts 73°
2026-05-05 18:57 48.69134 9.21590 1280 ft 24 kts 74°
2026-05-05 18:57 48.69180 9.21837 1280 ft 24 kts 74°
2026-05-05 18:57 48.69225 9.22075 1280 ft 23 kts 74°
2026-05-05 18:57 48.69270 9.22313 1280 ft 25 kts 74°
2026-05-05 18:58 48.69319 9.22570 1280 ft 26 kts 74°
2026-05-05 18:58 48.69373 9.22854 1280 ft 30 kts 73°
2026-05-05 18:58 48.69401 9.22998 1280 ft 14 kts 73°
2026-05-05 18:58 48.69379 9.23147 1280 ft 14 kts 153°
2026-05-05 18:59 48.69291 9.23138 1280 ft 13 kts 218°
2026-05-05 18:59 48.69263 9.23098 1280 ft 5 kts 225°
2026-05-05 18:59 48.69257 9.23088 1280 ft 0 kts 225°
2026-05-05 19:05 48.69217 9.23030 1280 ft 13 kts 224°
2026-05-05 19:06 48.69153 9.22933 1280 ft 11 kts 224°
2026-05-05 19:06 48.69111 9.22855 1280 ft 8 kts 252°
2026-05-05 19:06 48.69108 9.22841 1280 ft 7 kts 254°
2026-05-05 19:06 48.69034 9.22456 1280 ft 69 kts 255°
2026-05-05 19:07 48.68877 9.21623 1483 ft 86 kts 253°
2026-05-05 19:07 48.68717 9.20759 1811 ft 91 kts 252°
2026-05-05 19:07 48.68367 9.19994 2207 ft 89 kts 220°
2026-05-05 19:07 48.67759 9.19716 2360 ft 98 kts 183°
2026-05-05 19:08 48.67040 9.19837 2361 ft 109 kts 178°
2026-05-05 19:08 48.66290 9.20042 2449 ft 109 kts 166°
2026-05-05 19:08 48.65674 9.20766 2485 ft 120 kts 125°
2026-05-05 19:08 48.65485 9.22023 2467 ft 130 kts 87°
2026-05-05 19:09 48.65812 9.23286 2442 ft 131 kts 62°
2026-05-05 19:09 48.66237 9.24499 2399 ft 130 kts 59°
2026-05-05 19:09 48.66702 9.25684 2287 ft 131 kts 57°
2026-05-05 19:09 48.67197 9.26830 2219 ft 130 kts 56°
2026-05-05 19:10 48.67716 9.27968 2165 ft 132 kts 54°
2026-05-05 19:10 48.68194 9.29062 2219 ft 118 kts 64°
2026-05-05 19:10 48.68590 9.30034 2297 ft 101 kts 45°
2026-05-05 19:10 48.69183 9.30470 2176 ft 97 kts 358°
2026-05-05 19:11 48.69855 9.30249 2018 ft 99 kts 323°
2026-05-05 19:11 48.70146 9.29342 1864 ft 103 kts 276°
2026-05-05 19:11 48.70031 9.28227 1916 ft 117 kts 240°
2026-05-05 19:11 48.69365 9.27468 2120 ft 130 kts 200°
2026-05-05 19:12 48.68433 9.27308 2344 ft 136 kts 178°
2026-05-05 19:12 48.67607 9.27809 2471 ft 127 kts 141°
2026-05-05 19:12 48.67294 9.28992 2587 ft 122 kts 88°
2026-05-05 19:12 48.67675 9.30073 2648 ft 118 kts 33°
2026-05-05 19:13 48.68436 9.30263 2654 ft 112 kts 338°
2026-05-05 19:13 48.68970 9.29538 2668 ft 104 kts 287°
2026-05-05 19:13 48.68871 9.28506 2658 ft 103 kts 233°
2026-05-05 19:13 48.68209 9.28122 2626 ft 113 kts 180°
2026-05-05 19:14 48.67457 9.28627 2531 ft 123 kts 142°
2026-05-05 19:14 48.67021 9.29741 2505 ft 126 kts 107°
2026-05-05 19:14 48.67051 9.31064 2481 ft 126 kts 69°
2026-05-05 19:14 48.67642 9.32000 2404 ft 127 kts 21°
2026-05-05 19:15 48.68478 9.32071 2329 ft 126 kts 343°
2026-05-05 19:15 48.69291 9.31716 2252 ft 118 kts 338°
2026-05-05 19:15 48.70023 9.31312 2226 ft 106 kts 333°
2026-05-05 19:15 48.70500 9.30652 2192 ft 87 kts 284°
2026-05-05 19:16 48.70473 9.29698 2042 ft 98 kts 252°
2026-05-05 19:16 48.70236 9.28687 1909 ft 105 kts 247°
2026-05-05 19:16 48.70012 9.27596 1746 ft 111 kts 254°
2026-05-05 19:16 48.69784 9.26424 1648 ft 121 kts 253°
2026-05-05 19:17 48.69544 9.25201 1509 ft 116 kts 253°
2026-05-05 19:17 48.69341 9.24083 1330 ft 103 kts 253°
2026-05-05 19:17 48.69174 9.23215 1280 ft 68 kts 255°
2026-05-05 19:17 48.69041 9.22508 1285 ft 85 kts 253°
2026-05-05 19:18 48.68859 9.21614 1523 ft 96 kts 252°
2026-05-05 19:18 48.68596 9.20566 1761 ft 112 kts 240°
2026-05-05 19:18 48.67992 9.19774 2057 ft 121 kts 203°
2026-05-05 19:18 48.67099 9.19719 2208 ft 136 kts 169°
2026-05-05 19:19 48.66181 9.20102 2254 ft 135 kts 167°
2026-05-05 19:19 48.65455 9.20886 2518 ft 128 kts 125°
2026-05-05 19:19 48.65330 9.22237 2558 ft 139 kts 81°
2026-05-05 19:19 48.65618 9.23648 2515 ft 143 kts 70°
2026-05-05 19:20 48.65987 9.25057 2433 ft 144 kts 66°
2026-05-05 19:20 48.66401 9.26435 2303 ft 146 kts 65°
2026-05-05 19:20 48.66587 9.27907 2259 ft 140 kts 96°
2026-05-05 19:20 48.66250 9.29173 2279 ft 129 kts 133°
2026-05-05 19:21 48.65483 9.29724 2264 ft 122 kts 181°
2026-05-05 19:21 48.64724 9.29280 2244 ft 119 kts 225°
2026-05-05 19:21 48.64374 9.28158 2152 ft 122 kts 262°
2026-05-05 19:21 48.64553 9.26938 2185 ft 120 kts 301°
2026-05-05 19:22 48.65243 9.26185 2205 ft 128 kts 340°
2026-05-05 19:22 48.66135 9.26202 2202 ft 133 kts 14°
2026-05-05 19:22 48.66866 9.27074 2169 ft 140 kts 58°
2026-05-05 19:22 48.67124 9.28451 2184 ft 134 kts 90°
2026-05-05 19:23 48.67174 9.29798 2305 ft 122 kts 78°
2026-05-05 19:23 48.67620 9.30820 2330 ft 119 kts 31°
2026-05-05 19:23 48.68382 9.31046 2299 ft 112 kts 347°
2026-05-05 19:23 48.69161 9.30781 2258 ft 116 kts 341°
2026-05-05 19:24 48.69944 9.30465 2226 ft 116 kts 338°
2026-05-05 19:24 48.70477 9.29730 2279 ft 99 kts 284°
2026-05-05 19:24 48.70376 9.28747 2127 ft 103 kts 245°
2026-05-05 19:24 48.70060 9.27758 1895 ft 104 kts 243°
2026-05-05 19:25 48.69837 9.26731 1748 ft 101 kts 254°
2026-05-05 19:25 48.69655 9.25716 1625 ft 96 kts 252°
2026-05-05 19:25 48.69489 9.24854 1469 ft 78 kts 252°
2026-05-05 19:25 48.69333 9.24077 1350 ft 75 kts 253°
2026-05-05 19:26 48.69205 9.23342 1280 ft 63 kts 253°
2026-05-05 19:26 48.69085 9.22735 1281 ft 74 kts 254°
2026-05-05 19:26 48.68920 9.21906 1544 ft 86 kts 251°
2026-05-05 19:26 48.68729 9.20990 1869 ft 99 kts 252°
2026-05-05 19:27 48.68732 9.19890 2175 ft 112 kts 285°
2026-05-05 19:27 48.69200 9.18939 2458 ft 113 kts 315°
2026-05-05 19:27 48.69904 9.18334 2419 ft 120 kts 335°